sensor_id;sensor_type;location;lat;lon;timestamp;P1;durP1;ratioP1;P2;durP2;ratioP2
25349;SDS011;13302;48.796;11.978;2022-12-29T00:01:20;1.60;;;1.60;;
25349;SDS011;13302;48.796;11.978;2022-12-29T00:04:09;2.17;;;1.70;;
25349;SDS011;13302;48.796;11.978;2022-12-29T00:07:01;1.70;;;1.70;;
25349;SDS011;13302;48.796;11.978;2022-12-29T00:09:51;1.47;;;1.47;;
25349;SDS011;13302;48.796;11.978;2022-12-29T00:12:38;1.50;;;1.50;;
25349;SDS011;13302;48.796;11.978;2022-12-29T00:15:43;1.80;;;1.80;;
25349;SDS011;13302;48.796;11.978;2022-12-29T00:18:30;1.50;;;1.50;;
25349;SDS011;13302;48.796;11.978;2022-12-29T00:21:18;1.60;;;1.50;;
25349;SDS011;13302;48.796;11.978;2022-12-29T00:24:25;1.60;;;1.50;;
25349;SDS011;13302;48.796;11.978;2022-12-29T00:27:12;3.77;;;3.10;;
25349;SDS011;13302;48.796;11.978;2022-12-29T00:30:22;2.73;;;2.53;;
25349;SDS011;13302;48.796;11.978;2022-12-29T00:33:29;2.40;;;2.20;;
25349;SDS011;13302;48.796;11.978;2022-12-29T00:36:38;2.23;;;2.13;;
25349;SDS011;13302;48.796;11.978;2022-12-29T00:39:27;1.93;;;1.83;;
25349;SDS011;13302;48.796;11.978;2022-12-29T00:42:33;2.10;;;2.00;;
25349;SDS011;13302;48.796;11.978;2022-12-29T00:45:40;2.10;;;2.00;;
25349;SDS011;13302;48.796;11.978;2022-12-29T00:48:28;2.60;;;2.40;;
25349;SDS011;13302;48.796;11.978;2022-12-29T00:51:33;2.27;;;2.07;;
25349;SDS011;13302;48.796;11.978;2022-12-29T00:54:21;2.50;;;2.30;;
25349;SDS011;13302;48.796;11.978;2022-12-29T00:57:08;2.10;;;2.00;;
25349;SDS011;13302;48.796;11.978;2022-12-29T00:59:56;1.77;;;1.77;;
25349;SDS011;13302;48.796;11.978;2022-12-29T01:02:43;2.30;;;2.20;;
25349;SDS011;13302;48.796;11.978;2022-12-29T01:05:30;2.10;;;2.00;;
25349;SDS011;13302;48.796;11.978;2022-12-29T01:08:17;2.40;;;2.30;;
25349;SDS011;13302;48.796;11.978;2022-12-29T01:11:14;2.20;;;2.07;;
25349;SDS011;13302;48.796;11.978;2022-12-29T01:14:03;2.43;;;2.30;;
25349;SDS011;13302;48.796;11.978;2022-12-29T01:16:50;3.23;;;3.10;;
25349;SDS011;13302;48.796;11.978;2022-12-29T01:19:38;3.00;;;2.80;;
25349;SDS011;13302;48.796;11.978;2022-12-29T01:22:25;3.70;;;3.40;;
25349;SDS011;13302;48.796;11.978;2022-12-29T01:25:14;3.53;;;3.23;;
25349;SDS011;13302;48.796;11.978;2022-12-29T01:28:01;3.40;;;3.20;;
25349;SDS011;13302;48.796;11.978;2022-12-29T01:30:48;3.67;;;3.47;;
25349;SDS011;13302;48.796;11.978;2022-12-29T01:33:35;3.13;;;2.93;;
25349;SDS011;13302;48.796;11.978;2022-12-29T01:36:23;3.13;;;2.93;;
25349;SDS011;13302;48.796;11.978;2022-12-29T01:39:10;2.93;;;2.73;;
25349;SDS011;13302;48.796;11.978;2022-12-29T01:41:57;3.50;;;3.30;;
25349;SDS011;13302;48.796;11.978;2022-12-29T01:47:48;4.23;;;3.83;;
25349;SDS011;13302;48.796;11.978;2022-12-29T01:50:39;4.03;;;3.63;;
25349;SDS011;13302;48.796;11.978;2022-12-29T01:53:30;3.30;;;3.10;;
25349;SDS011;13302;48.796;11.978;2022-12-29T01:56:20;3.37;;;3.17;;
25349;SDS011;13302;48.796;11.978;2022-12-29T01:59:09;3.90;;;3.60;;
25349;SDS011;13302;48.796;11.978;2022-12-29T02:02:00;3.27;;;3.10;;
25349;SDS011;13302;48.796;11.978;2022-12-29T02:04:48;3.60;;;3.30;;
25349;SDS011;13302;48.796;11.978;2022-12-29T02:07:37;3.13;;;2.93;;
25349;SDS011;13302;48.796;11.978;2022-12-29T02:10:25;2.87;;;2.77;;
25349;SDS011;13302;48.796;11.978;2022-12-29T02:13:15;3.33;;;3.13;;
25349;SDS011;13302;48.796;11.978;2022-12-29T02:22:22;3.57;;;3.37;;
25349;SDS011;13302;48.796;11.978;2022-12-29T02:25:30;3.63;;;3.33;;
25349;SDS011;13302;48.796;11.978;2022-12-29T02:31:57;3.43;;;3.10;;
25349;SDS011;13302;48.796;11.978;2022-12-29T02:34:57;2.90;;;2.53;;
25349;SDS011;13302;48.796;11.978;2022-12-29T02:41:32;2.63;;;1.73;;
25349;SDS011;13302;48.796;11.978;2022-12-29T02:44:26;1.90;;;1.80;;
25349;SDS011;13302;48.796;11.978;2022-12-29T02:48:07;1.27;;;1.27;;
25349;SDS011;13302;48.796;11.978;2022-12-29T02:50:38;1.60;;;1.50;;
25349;SDS011;13302;48.796;11.978;2022-12-29T02:53:31;1.57;;;1.53;;
25349;SDS011;13302;48.796;11.978;2022-12-29T02:56:39;1.10;;;1.10;;
25349;SDS011;13302;48.796;11.978;2022-12-29T02:59:26;1.30;;;1.30;;
25349;SDS011;13302;48.796;11.978;2022-12-29T03:05:54;2.10;;;1.40;;
25349;SDS011;13302;48.796;11.978;2022-12-29T03:08:50;1.50;;;1.50;;
25349;SDS011;13302;48.796;11.978;2022-12-29T03:11:43;1.60;;;1.60;;
25349;SDS011;13302;48.796;11.978;2022-12-29T03:14:59;1.60;;;1.60;;
25349;SDS011;13302;48.796;11.978;2022-12-29T03:18:14;1.30;;;1.30;;
25349;SDS011;13302;48.796;11.978;2022-12-29T03:21:14;1.07;;;1.00;;
25349;SDS011;13302;48.796;11.978;2022-12-29T03:24:06;1.00;;;1.00;;
25349;SDS011;13302;48.796;11.978;2022-12-29T03:26:56;0.80;;;0.80;;
25349;SDS011;13302;48.796;11.978;2022-12-29T03:29:54;1.30;;;1.30;;
25349;SDS011;13302;48.796;11.978;2022-12-29T03:32:45;1.07;;;1.07;;
25349;SDS011;13302;48.796;11.978;2022-12-29T03:35:36;0.97;;;0.97;;
25349;SDS011;13302;48.796;11.978;2022-12-29T03:38:33;0.80;;;0.80;;
25349;SDS011;13302;48.796;11.978;2022-12-29T03:41:26;1.63;;;1.00;;
25349;SDS011;13302;48.796;11.978;2022-12-29T03:44:18;1.23;;;1.10;;
25349;SDS011;13302;48.796;11.978;2022-12-29T03:47:05;1.20;;;1.20;;
25349;SDS011;13302;48.796;11.978;2022-12-29T03:49:54;1.20;;;1.20;;
25349;SDS011;13302;48.796;11.978;2022-12-29T03:52:41;0.93;;;0.90;;
25349;SDS011;13302;48.796;11.978;2022-12-29T03:55:28;1.07;;;1.07;;
25349;SDS011;13302;48.796;11.978;2022-12-29T03:58:16;1.53;;;1.00;;
25349;SDS011;13302;48.796;11.978;2022-12-29T04:01:30;1.03;;;1.03;;
25349;SDS011;13302;48.796;11.978;2022-12-29T04:04:17;3.10;;;0.90;;
25349;SDS011;13302;48.796;11.978;2022-12-29T04:07:05;1.63;;;1.00;;
25349;SDS011;13302;48.796;11.978;2022-12-29T04:09:52;1.00;;;1.00;;
25349;SDS011;13302;48.796;11.978;2022-12-29T04:12:42;0.90;;;0.90;;
25349;SDS011;13302;48.796;11.978;2022-12-29T04:15:30;0.93;;;0.87;;
25349;SDS011;13302;48.796;11.978;2022-12-29T04:18:18;0.90;;;0.90;;
25349;SDS011;13302;48.796;11.978;2022-12-29T04:21:06;1.30;;;1.20;;
25349;SDS011;13302;48.796;11.978;2022-12-29T04:23:57;0.90;;;0.90;;
25349;SDS011;13302;48.796;11.978;2022-12-29T04:26:44;0.80;;;0.80;;
25349;SDS011;13302;48.796;11.978;2022-12-29T04:29:49;0.93;;;0.93;;
25349;SDS011;13302;48.796;11.978;2022-12-29T04:32:54;0.90;;;0.90;;
25349;SDS011;13302;48.796;11.978;2022-12-29T04:35:42;1.03;;;1.03;;
25349;SDS011;13302;48.796;11.978;2022-12-29T04:38:30;0.90;;;0.90;;
25349;SDS011;13302;48.796;11.978;2022-12-29T04:41:19;0.70;;;0.70;;
25349;SDS011;13302;48.796;11.978;2022-12-29T04:44:07;1.17;;;1.07;;
25349;SDS011;13302;48.796;11.978;2022-12-29T04:47:11;1.40;;;1.00;;
25349;SDS011;13302;48.796;11.978;2022-12-29T04:50:07;0.80;;;0.80;;
25349;SDS011;13302;48.796;11.978;2022-12-29T04:53:03;1.03;;;0.70;;
25349;SDS011;13302;48.796;11.978;2022-12-29T04:55:52;0.87;;;0.80;;
25349;SDS011;13302;48.796;11.978;2022-12-29T04:58:40;0.83;;;0.83;;
25349;SDS011;13302;48.796;11.978;2022-12-29T05:01:28;0.90;;;0.90;;
25349;SDS011;13302;48.796;11.978;2022-12-29T05:04:15;0.90;;;0.90;;
25349;SDS011;13302;48.796;11.978;2022-12-29T05:07:03;0.87;;;0.87;;
25349;SDS011;13302;48.796;11.978;2022-12-29T05:09:50;0.90;;;0.90;;
25349;SDS011;13302;48.796;11.978;2022-12-29T05:12:38;0.80;;;0.80;;
25349;SDS011;13302;48.796;11.978;2022-12-29T05:15:26;0.90;;;0.90;;
25349;SDS011;13302;48.796;11.978;2022-12-29T05:18:13;0.90;;;0.90;;
25349;SDS011;13302;48.796;11.978;2022-12-29T05:21:00;0.93;;;0.90;;
25349;SDS011;13302;48.796;11.978;2022-12-29T05:23:48;1.47;;;0.77;;
25349;SDS011;13302;48.796;11.978;2022-12-29T05:26:35;0.70;;;0.70;;
25349;SDS011;13302;48.796;11.978;2022-12-29T05:29:30;0.80;;;0.80;;
25349;SDS011;13302;48.796;11.978;2022-12-29T05:32:17;0.63;;;0.63;;
25349;SDS011;13302;48.796;11.978;2022-12-29T05:35:05;0.70;;;0.70;;
25349;SDS011;13302;48.796;11.978;2022-12-29T05:37:53;0.80;;;0.80;;
25349;SDS011;13302;48.796;11.978;2022-12-29T05:40:40;0.90;;;0.90;;
25349;SDS011;13302;48.796;11.978;2022-12-29T05:43:39;0.60;;;0.60;;
25349;SDS011;13302;48.796;11.978;2022-12-29T05:46:34;0.90;;;0.90;;
25349;SDS011;13302;48.796;11.978;2022-12-29T05:49:30;0.67;;;0.67;;
25349;SDS011;13302;48.796;11.978;2022-12-29T05:52:24;0.87;;;0.87;;
25349;SDS011;13302;48.796;11.978;2022-12-29T05:55:12;1.80;;;0.90;;
25349;SDS011;13302;48.796;11.978;2022-12-29T05:58:01;0.70;;;0.70;;
25349;SDS011;13302;48.796;11.978;2022-12-29T06:00:48;1.37;;;1.27;;
25349;SDS011;13302;48.796;11.978;2022-12-29T06:03:36;1.20;;;1.20;;
25349;SDS011;13302;48.796;11.978;2022-12-29T06:06:26;0.70;;;0.70;;
25349;SDS011;13302;48.796;11.978;2022-12-29T06:09:14;0.87;;;0.87;;
25349;SDS011;13302;48.796;11.978;2022-12-29T06:12:02;0.90;;;0.90;;
25349;SDS011;13302;48.796;11.978;2022-12-29T06:14:49;0.90;;;0.90;;
25349;SDS011;13302;48.796;11.978;2022-12-29T06:17:36;0.97;;;0.97;;
25349;SDS011;13302;48.796;11.978;2022-12-29T06:20:23;1.00;;;1.00;;
25349;SDS011;13302;48.796;11.978;2022-12-29T06:23:11;1.00;;;1.00;;
25349;SDS011;13302;48.796;11.978;2022-12-29T06:26:01;1.30;;;1.30;;
25349;SDS011;13302;48.796;11.978;2022-12-29T06:28:48;3.47;;;1.50;;
25349;SDS011;13302;48.796;11.978;2022-12-29T06:31:35;1.73;;;1.63;;
25349;SDS011;13302;48.796;11.978;2022-12-29T06:34:24;1.50;;;1.50;;
25349;SDS011;13302;48.796;11.978;2022-12-29T06:37:11;1.50;;;1.50;;
25349;SDS011;13302;48.796;11.978;2022-12-29T06:39:59;2.07;;;1.97;;
25349;SDS011;13302;48.796;11.978;2022-12-29T06:42:55;2.10;;;2.00;;
25349;SDS011;13302;48.796;11.978;2022-12-29T06:45:56;2.00;;;1.90;;
25349;SDS011;13302;48.796;11.978;2022-12-29T06:48:44;1.40;;;1.40;;
25349;SDS011;13302;48.796;11.978;2022-12-29T06:51:31;1.63;;;1.60;;
25349;SDS011;13302;48.796;11.978;2022-12-29T06:54:18;1.60;;;1.60;;
25349;SDS011;13302;48.796;11.978;2022-12-29T06:57:05;1.77;;;1.67;;
25349;SDS011;13302;48.796;11.978;2022-12-29T06:59:53;2.00;;;1.90;;
25349;SDS011;13302;48.796;11.978;2022-12-29T07:02:42;1.63;;;1.63;;
25349;SDS011;13302;48.796;11.978;2022-12-29T07:05:29;1.37;;;1.27;;
25349;SDS011;13302;48.796;11.978;2022-12-29T07:08:18;1.23;;;1.23;;
25349;SDS011;13302;48.796;11.978;2022-12-29T07:11:05;1.40;;;1.40;;
25349;SDS011;13302;48.796;11.978;2022-12-29T07:13:52;1.30;;;1.30;;
25349;SDS011;13302;48.796;11.978;2022-12-29T07:16:39;1.30;;;1.30;;
25349;SDS011;13302;48.796;11.978;2022-12-29T07:19:26;1.30;;;1.30;;
25349;SDS011;13302;48.796;11.978;2022-12-29T07:22:13;1.20;;;1.20;;
25349;SDS011;13302;48.796;11.978;2022-12-29T07:25:00;1.30;;;1.30;;
25349;SDS011;13302;48.796;11.978;2022-12-29T07:27:47;1.20;;;1.20;;
25349;SDS011;13302;48.796;11.978;2022-12-29T07:30:36;1.50;;;1.40;;
25349;SDS011;13302;48.796;11.978;2022-12-29T07:33:23;1.80;;;1.70;;
25349;SDS011;13302;48.796;11.978;2022-12-29T07:36:11;1.40;;;1.40;;
25349;SDS011;13302;48.796;11.978;2022-12-29T07:38:58;1.90;;;1.80;;
25349;SDS011;13302;48.796;11.978;2022-12-29T07:41:45;1.87;;;1.77;;
25349;SDS011;13302;48.796;11.978;2022-12-29T07:44:36;2.33;;;2.13;;
25349;SDS011;13302;48.796;11.978;2022-12-29T07:47:40;2.07;;;1.97;;
25349;SDS011;13302;48.796;11.978;2022-12-29T07:50:27;2.57;;;2.40;;
25349;SDS011;13302;48.796;11.978;2022-12-29T07:53:15;2.70;;;2.60;;
25349;SDS011;13302;48.796;11.978;2022-12-29T07:56:02;2.60;;;2.50;;
25349;SDS011;13302;48.796;11.978;2022-12-29T07:58:49;3.03;;;2.73;;
25349;SDS011;13302;48.796;11.978;2022-12-29T08:01:36;3.17;;;2.97;;
25349;SDS011;13302;48.796;11.978;2022-12-29T08:04:23;3.07;;;2.87;;
25349;SDS011;13302;48.796;11.978;2022-12-29T08:07:10;3.10;;;2.90;;
25349;SDS011;13302;48.796;11.978;2022-12-29T08:09:57;3.40;;;3.07;;
25349;SDS011;13302;48.796;11.978;2022-12-29T08:12:44;3.77;;;3.47;;
25349;SDS011;13302;48.796;11.978;2022-12-29T08:15:31;3.47;;;3.20;;
25349;SDS011;13302;48.796;11.978;2022-12-29T08:18:18;3.73;;;3.43;;
25349;SDS011;13302;48.796;11.978;2022-12-29T08:21:05;3.57;;;3.37;;
25349;SDS011;13302;48.796;11.978;2022-12-29T08:23:52;3.73;;;3.50;;
25349;SDS011;13302;48.796;11.978;2022-12-29T08:26:39;3.17;;;2.93;;
25349;SDS011;13302;48.796;11.978;2022-12-29T08:29:27;3.60;;;3.33;;
25349;SDS011;13302;48.796;11.978;2022-12-29T08:32:14;3.80;;;3.47;;
25349;SDS011;13302;48.796;11.978;2022-12-29T08:35:01;3.90;;;3.70;;
25349;SDS011;13302;48.796;11.978;2022-12-29T08:37:49;3.80;;;3.50;;
25349;SDS011;13302;48.796;11.978;2022-12-29T08:40:36;4.70;;;4.40;;
25349;SDS011;13302;48.796;11.978;2022-12-29T08:43:23;4.90;;;4.60;;
25349;SDS011;13302;48.796;11.978;2022-12-29T08:46:11;4.60;;;4.20;;
25349;SDS011;13302;48.796;11.978;2022-12-29T08:48:58;3.93;;;3.73;;
25349;SDS011;13302;48.796;11.978;2022-12-29T08:51:45;3.63;;;3.43;;
25349;SDS011;13302;48.796;11.978;2022-12-29T08:54:32;7.10;;;6.50;;
25349;SDS011;13302;48.796;11.978;2022-12-29T08:57:19;7.40;;;6.40;;
25349;SDS011;13302;48.796;11.978;2022-12-29T09:00:21;7.80;;;7.00;;
25349;SDS011;13302;48.796;11.978;2022-12-29T09:03:08;7.00;;;6.17;;
25349;SDS011;13302;48.796;11.978;2022-12-29T09:05:56;6.63;;;5.90;;
25349;SDS011;13302;48.796;11.978;2022-12-29T09:08:43;5.80;;;5.17;;
25349;SDS011;13302;48.796;11.978;2022-12-29T09:11:30;5.47;;;5.07;;
25349;SDS011;13302;48.796;11.978;2022-12-29T09:14:17;4.40;;;4.00;;
25349;SDS011;13302;48.796;11.978;2022-12-29T09:17:05;4.67;;;4.07;;
25349;SDS011;13302;48.796;11.978;2022-12-29T09:20:11;3.30;;;3.10;;
25349;SDS011;13302;48.796;11.978;2022-12-29T09:23:00;2.80;;;2.60;;
25349;SDS011;13302;48.796;11.978;2022-12-29T09:25:48;2.13;;;2.00;;
25349;SDS011;13302;48.796;11.978;2022-12-29T09:28:35;1.80;;;1.53;;
25349;SDS011;13302;48.796;11.978;2022-12-29T09:31:23;2.53;;;1.70;;
25349;SDS011;13302;48.796;11.978;2022-12-29T09:34:11;1.73;;;1.63;;
25349;SDS011;13302;48.796;11.978;2022-12-29T09:36:58;1.20;;;1.20;;
25349;SDS011;13302;48.796;11.978;2022-12-29T09:39:45;1.73;;;1.57;;
25349;SDS011;13302;48.796;11.978;2022-12-29T09:42:45;1.40;;;1.30;;
25349;SDS011;13302;48.796;11.978;2022-12-29T09:46:03;1.67;;;1.33;;
25349;SDS011;13302;48.796;11.978;2022-12-29T09:52:12;1.10;;;1.10;;
25349;SDS011;13302;48.796;11.978;2022-12-29T09:55:03;1.73;;;1.30;;
25349;SDS011;13302;48.796;11.978;2022-12-29T09:58:00;1.67;;;1.10;;
25349;SDS011;13302;48.796;11.978;2022-12-29T10:00:54;0.97;;;0.97;;
25349;SDS011;13302;48.796;11.978;2022-12-29T10:09:58;2.03;;;0.90;;
25349;SDS011;13302;48.796;11.978;2022-12-29T10:16:03;1.03;;;0.97;;
25349;SDS011;13302;48.796;11.978;2022-12-29T10:25:18;1.10;;;1.10;;
25349;SDS011;13302;48.796;11.978;2022-12-29T10:28:21;0.97;;;0.97;;
25349;SDS011;13302;48.796;11.978;2022-12-29T10:31:15;0.70;;;0.70;;
25349;SDS011;13302;48.796;11.978;2022-12-29T10:34:41;3.57;;;1.20;;
25349;SDS011;13302;48.796;11.978;2022-12-29T10:37:34;1.20;;;0.90;;
25349;SDS011;13302;48.796;11.978;2022-12-29T10:40:31;1.40;;;0.93;;
25349;SDS011;13302;48.796;11.978;2022-12-29T10:43:29;1.13;;;1.03;;
25349;SDS011;13302;48.796;11.978;2022-12-29T10:46:21;1.40;;;0.90;;
25349;SDS011;13302;48.796;11.978;2022-12-29T10:49:17;1.13;;;1.03;;
25349;SDS011;13302;48.796;11.978;2022-12-29T10:52:09;1.30;;;1.20;;
25349;SDS011;13302;48.796;11.978;2022-12-29T10:55:07;1.93;;;1.07;;
25349;SDS011;13302;48.796;11.978;2022-12-29T10:58:01;1.20;;;1.20;;
25349;SDS011;13302;48.796;11.978;2022-12-29T11:00:52;1.10;;;1.00;;
25349;SDS011;13302;48.796;11.978;2022-12-29T11:03:43;3.40;;;1.20;;
25349;SDS011;13302;48.796;11.978;2022-12-29T11:06:37;2.27;;;1.20;;
25349;SDS011;13302;48.796;11.978;2022-12-29T11:09:25;1.40;;;1.30;;
25349;SDS011;13302;48.796;11.978;2022-12-29T11:12:29;1.33;;;1.23;;
25349;SDS011;13302;48.796;11.978;2022-12-29T11:15:17;1.07;;;1.07;;
25349;SDS011;13302;48.796;11.978;2022-12-29T11:18:04;1.70;;;1.00;;
25349;SDS011;13302;48.796;11.978;2022-12-29T11:20:53;1.17;;;1.10;;
25349;SDS011;13302;48.796;11.978;2022-12-29T11:23:48;1.30;;;1.30;;
25349;SDS011;13302;48.796;11.978;2022-12-29T11:26:44;0.90;;;0.90;;
25349;SDS011;13302;48.796;11.978;2022-12-29T11:29:37;2.00;;;1.20;;
25349;SDS011;13302;48.796;11.978;2022-12-29T11:32:27;1.37;;;1.20;;
25349;SDS011;13302;48.796;11.978;2022-12-29T11:35:31;1.20;;;1.07;;
25349;SDS011;13302;48.796;11.978;2022-12-29T11:38:33;1.30;;;0.97;;
25349;SDS011;13302;48.796;11.978;2022-12-29T11:41:24;0.90;;;0.90;;
25349;SDS011;13302;48.796;11.978;2022-12-29T11:44:14;1.00;;;1.00;;
25349;SDS011;13302;48.796;11.978;2022-12-29T11:47:01;1.23;;;1.03;;
25349;SDS011;13302;48.796;11.978;2022-12-29T11:49:49;0.63;;;0.63;;
25349;SDS011;13302;48.796;11.978;2022-12-29T11:52:39;1.27;;;0.90;;
25349;SDS011;13302;48.796;11.978;2022-12-29T11:55:26;1.30;;;1.00;;
25349;SDS011;13302;48.796;11.978;2022-12-29T11:58:15;1.03;;;0.93;;
25349;SDS011;13302;48.796;11.978;2022-12-29T12:01:04;1.10;;;1.07;;
25349;SDS011;13302;48.796;11.978;2022-12-29T12:04:16;0.80;;;0.80;;
25349;SDS011;13302;48.796;11.978;2022-12-29T12:07:15;0.70;;;0.70;;
25349;SDS011;13302;48.796;11.978;2022-12-29T12:10:21;1.13;;;0.90;;
25349;SDS011;13302;48.796;11.978;2022-12-29T12:13:19;1.57;;;0.87;;
25349;SDS011;13302;48.796;11.978;2022-12-29T12:22:32;1.43;;;0.60;;
25349;SDS011;13302;48.796;11.978;2022-12-29T12:25:25;0.90;;;0.70;;
25349;SDS011;13302;48.796;11.978;2022-12-29T12:28:23;0.97;;;0.90;;
25349;SDS011;13302;48.796;11.978;2022-12-29T12:31:39;1.50;;;0.80;;
25349;SDS011;13302;48.796;11.978;2022-12-29T12:34:36;0.80;;;0.80;;
25349;SDS011;13302;48.796;11.978;2022-12-29T12:38:08;0.60;;;0.60;;
25349;SDS011;13302;48.796;11.978;2022-12-29T12:41:11;0.70;;;0.70;;
25349;SDS011;13302;48.796;11.978;2022-12-29T12:44:21;0.80;;;0.80;;
25349;SDS011;13302;48.796;11.978;2022-12-29T12:50:31;1.50;;;0.70;;
25349;SDS011;13302;48.796;11.978;2022-12-29T12:56:27;1.00;;;1.00;;
25349;SDS011;13302;48.796;11.978;2022-12-29T13:03:12;1.43;;;1.33;;
25349;SDS011;13302;48.796;11.978;2022-12-29T13:06:21;1.33;;;0.80;;
25349;SDS011;13302;48.796;11.978;2022-12-29T13:18:55;0.80;;;0.80;;
25349;SDS011;13302;48.796;11.978;2022-12-29T13:21:54;1.23;;;1.13;;
25349;SDS011;13302;48.796;11.978;2022-12-29T13:30:54;1.00;;;1.00;;
25349;SDS011;13302;48.796;11.978;2022-12-29T13:36:51;4.17;;;3.20;;
25349;SDS011;13302;48.796;11.978;2022-12-29T13:39:43;7.30;;;3.70;;
25349;SDS011;13302;48.796;11.978;2022-12-29T13:42:35;5.13;;;2.60;;
25349;SDS011;13302;48.796;11.978;2022-12-29T13:45:24;2.37;;;1.90;;
25349;SDS011;13302;48.796;11.978;2022-12-29T13:48:14;7.00;;;3.80;;
25349;SDS011;13302;48.796;11.978;2022-12-29T13:51:07;3.73;;;2.20;;
25349;SDS011;13302;48.796;11.978;2022-12-29T14:00:42;0.97;;;0.90;;
25349;SDS011;13302;48.796;11.978;2022-12-29T14:03:50;1.33;;;0.70;;
25349;SDS011;13302;48.796;11.978;2022-12-29T14:06:40;3.00;;;1.03;;
25349;SDS011;13302;48.796;11.978;2022-12-29T14:09:47;1.63;;;1.27;;
25349;SDS011;13302;48.796;11.978;2022-12-29T14:12:41;1.80;;;1.70;;
25349;SDS011;13302;48.796;11.978;2022-12-29T14:15:30;2.40;;;1.60;;
25349;SDS011;13302;48.796;11.978;2022-12-29T14:18:18;2.10;;;1.73;;
25349;SDS011;13302;48.796;11.978;2022-12-29T14:30:01;1.10;;;1.10;;
25349;SDS011;13302;48.796;11.978;2022-12-29T14:33:00;1.93;;;1.27;;
25349;SDS011;13302;48.796;11.978;2022-12-29T14:35:49;1.03;;;1.00;;
25349;SDS011;13302;48.796;11.978;2022-12-29T14:38:43;0.80;;;0.80;;
25349;SDS011;13302;48.796;11.978;2022-12-29T14:41:35;1.17;;;0.70;;
25349;SDS011;13302;48.796;11.978;2022-12-29T14:44:25;1.40;;;1.30;;
25349;SDS011;13302;48.796;11.978;2022-12-29T14:47:20;0.90;;;0.90;;
25349;SDS011;13302;48.796;11.978;2022-12-29T14:50:14;1.23;;;0.80;;
25349;SDS011;13302;48.796;11.978;2022-12-29T14:53:40;1.00;;;0.83;;
25349;SDS011;13302;48.796;11.978;2022-12-29T14:56:39;2.43;;;0.80;;
25349;SDS011;13302;48.796;11.978;2022-12-29T14:59:26;0.70;;;0.70;;
25349;SDS011;13302;48.796;11.978;2022-12-29T15:02:17;0.60;;;0.60;;
25349;SDS011;13302;48.796;11.978;2022-12-29T15:08:25;0.80;;;0.80;;
25349;SDS011;13302;48.796;11.978;2022-12-29T15:11:19;1.90;;;0.93;;
25349;SDS011;13302;48.796;11.978;2022-12-29T15:17:34;1.63;;;0.90;;
25349;SDS011;13302;48.796;11.978;2022-12-29T15:20:28;0.80;;;0.80;;
25349;SDS011;13302;48.796;11.978;2022-12-29T15:23:16;1.40;;;0.80;;
25349;SDS011;13302;48.796;11.978;2022-12-29T15:26:05;0.93;;;0.93;;
25349;SDS011;13302;48.796;11.978;2022-12-29T15:28:53;1.00;;;1.00;;
25349;SDS011;13302;48.796;11.978;2022-12-29T15:31:47;0.90;;;0.90;;
25349;SDS011;13302;48.796;11.978;2022-12-29T15:34:35;2.37;;;1.00;;
25349;SDS011;13302;48.796;11.978;2022-12-29T15:37:23;0.90;;;0.90;;
25349;SDS011;13302;48.796;11.978;2022-12-29T15:40:21;0.83;;;0.83;;
25349;SDS011;13302;48.796;11.978;2022-12-29T15:43:45;1.00;;;0.90;;
25349;SDS011;13302;48.796;11.978;2022-12-29T15:46:32;1.17;;;0.97;;
25349;SDS011;13302;48.796;11.978;2022-12-29T15:49:19;1.10;;;0.90;;
25349;SDS011;13302;48.796;11.978;2022-12-29T15:52:09;1.00;;;1.00;;
25349;SDS011;13302;48.796;11.978;2022-12-29T15:54:57;1.10;;;1.10;;
25349;SDS011;13302;48.796;11.978;2022-12-29T15:57:45;2.47;;;1.00;;
25349;SDS011;13302;48.796;11.978;2022-12-29T16:00:33;2.40;;;1.00;;
25349;SDS011;13302;48.796;11.978;2022-12-29T16:03:27;2.93;;;1.40;;
25349;SDS011;13302;48.796;11.978;2022-12-29T16:06:35;3.50;;;2.70;;
25349;SDS011;13302;48.796;11.978;2022-12-29T16:09:41;5.30;;;3.97;;
25349;SDS011;13302;48.796;11.978;2022-12-29T16:12:30;4.33;;;3.30;;
25349;SDS011;13302;48.796;11.978;2022-12-29T16:15:20;3.97;;;2.80;;
25349;SDS011;13302;48.796;11.978;2022-12-29T16:18:12;5.33;;;4.00;;
25349;SDS011;13302;48.796;11.978;2022-12-29T16:21:15;9.93;;;5.53;;
25349;SDS011;13302;48.796;11.978;2022-12-29T16:24:07;6.77;;;4.97;;
25349;SDS011;13302;48.796;11.978;2022-12-29T16:30:03;4.10;;;2.40;;
25349;SDS011;13302;48.796;11.978;2022-12-29T16:32:54;3.13;;;2.30;;
25349;SDS011;13302;48.796;11.978;2022-12-29T16:38:30;1.50;;;1.40;;
25349;SDS011;13302;48.796;11.978;2022-12-29T16:41:29;1.83;;;1.50;;
25349;SDS011;13302;48.796;11.978;2022-12-29T16:44:25;2.07;;;1.47;;
25349;SDS011;13302;48.796;11.978;2022-12-29T16:47:18;1.60;;;1.30;;
25349;SDS011;13302;48.796;11.978;2022-12-29T16:50:11;1.43;;;1.30;;
25349;SDS011;13302;48.796;11.978;2022-12-29T16:53:03;1.70;;;1.30;;
25349;SDS011;13302;48.796;11.978;2022-12-29T16:55:52;1.20;;;1.10;;
25349;SDS011;13302;48.796;11.978;2022-12-29T16:58:40;1.53;;;1.17;;
25349;SDS011;13302;48.796;11.978;2022-12-29T17:01:37;1.10;;;1.10;;
25349;SDS011;13302;48.796;11.978;2022-12-29T17:04:25;0.90;;;0.90;;
25349;SDS011;13302;48.796;11.978;2022-12-29T17:07:16;1.40;;;1.30;;
25349;SDS011;13302;48.796;11.978;2022-12-29T17:10:07;0.90;;;0.90;;
25349;SDS011;13302;48.796;11.978;2022-12-29T17:12:54;1.00;;;1.00;;
25349;SDS011;13302;48.796;11.978;2022-12-29T17:15:41;0.90;;;0.90;;
25349;SDS011;13302;48.796;11.978;2022-12-29T17:18:28;0.90;;;0.90;;
25349;SDS011;13302;48.796;11.978;2022-12-29T17:21:15;1.17;;;1.17;;
25349;SDS011;13302;48.796;11.978;2022-12-29T17:24:04;1.00;;;1.00;;
25349;SDS011;13302;48.796;11.978;2022-12-29T17:26:52;1.23;;;1.23;;
25349;SDS011;13302;48.796;11.978;2022-12-29T17:29:41;0.97;;;0.97;;
25349;SDS011;13302;48.796;11.978;2022-12-29T17:32:29;1.10;;;1.10;;
25349;SDS011;13302;48.796;11.978;2022-12-29T17:35:17;1.23;;;1.13;;
25349;SDS011;13302;48.796;11.978;2022-12-29T17:38:20;0.90;;;0.90;;
25349;SDS011;13302;48.796;11.978;2022-12-29T17:41:17;1.47;;;1.00;;
25349;SDS011;13302;48.796;11.978;2022-12-29T17:44:05;1.00;;;1.00;;
25349;SDS011;13302;48.796;11.978;2022-12-29T17:46:53;1.10;;;1.10;;
25349;SDS011;13302;48.796;11.978;2022-12-29T17:49:40;1.00;;;1.00;;
25349;SDS011;13302;48.796;11.978;2022-12-29T17:52:31;0.80;;;0.80;;
25349;SDS011;13302;48.796;11.978;2022-12-29T17:55:19;0.70;;;0.70;;
25349;SDS011;13302;48.796;11.978;2022-12-29T17:58:14;1.00;;;1.00;;
25349;SDS011;13302;48.796;11.978;2022-12-29T18:01:05;0.90;;;0.90;;
25349;SDS011;13302;48.796;11.978;2022-12-29T18:03:52;0.93;;;0.93;;
25349;SDS011;13302;48.796;11.978;2022-12-29T18:06:40;1.40;;;1.30;;
25349;SDS011;13302;48.796;11.978;2022-12-29T18:09:27;0.87;;;0.87;;
25349;SDS011;13302;48.796;11.978;2022-12-29T18:15:18;2.50;;;1.10;;
25349;SDS011;13302;48.796;11.978;2022-12-29T18:18:16;1.67;;;1.00;;
25349;SDS011;13302;48.796;11.978;2022-12-29T18:21:05;1.37;;;1.27;;
25349;SDS011;13302;48.796;11.978;2022-12-29T18:23:52;1.00;;;1.00;;
25349;SDS011;13302;48.796;11.978;2022-12-29T18:26:39;1.40;;;1.07;;
25349;SDS011;13302;48.796;11.978;2022-12-29T18:29:26;1.10;;;1.10;;
25349;SDS011;13302;48.796;11.978;2022-12-29T18:32:13;2.10;;;0.87;;
25349;SDS011;13302;48.796;11.978;2022-12-29T18:35:01;1.43;;;0.97;;
25349;SDS011;13302;48.796;11.978;2022-12-29T18:37:48;1.80;;;1.03;;
25349;SDS011;13302;48.796;11.978;2022-12-29T18:40:35;1.00;;;1.00;;
25349;SDS011;13302;48.796;11.978;2022-12-29T18:43:23;1.10;;;1.00;;
25349;SDS011;13302;48.796;11.978;2022-12-29T18:46:10;1.20;;;1.07;;